Terminal Aerodrome Forecast
Issued by NWS

Home | Current Version | Previous Version | Text Only | Print | Product List | Glossary On
Versions: 1 2 3 4 5 6 7 8 9 10 11 12 13 14 15 16
000
FTUS44 KCRP 311122
TAFLRD
TAF
KLRD 311122Z 3112/0112 14011KT P6SM VCSH SCT025 BKN250
     FM311400 14012KT P6SM VCTS SCT028CB BKN250
      TEMPO 3116/3120 4SM TSRA BR BKN025CB
     FM312100 15012KT P6SM SCT040
     FM010300 13010KT P6SM VCTS BKN035CB
     FM010900 13006KT P6SM VCSH SCT025=

USA.gov is the U.S. government's official web portal to all federal, state and local government web resources and services.